Time;durP1;ratioP1;P1;durP2;ratioP2;P2;SDS_P1;SDS_P2;PMS_P1;PMS_P2;Temp;Humidity;BMP_temperature;BMP_pressure;BME280_temperature;BME280_humidity;BME280_pressure;Samples;Min_cycle;Max_cycle;Signal;HPM_P1;HPM_P2
2020/12/10 00:01:16;;;;;;;4.85;2.95;;;;;;;;;;5053063;28;20492;-57
2020/12/10 00:03:42;;;;;;;4.75;3.15;;;;;;;;;;5053057;28;20017;-57
2020/12/10 00:06:09;;;;;;;4.47;2.80;;;;;;;;;;5053295;28;20036;-57
2020/12/10 00:08:35;;;;;;;4.50;3.47;;;;;;;;;;5053113;28;20025;-58
2020/12/10 00:11:01;;;;;;;3.55;2.35;;;;;;;;;;5052985;28;20025;-58
2020/12/10 00:13:27;;;;;;;3.97;2.20;;;;;;;;;;5052905;28;20100;-56
2020/12/10 00:15:53;;;;;;;3.20;2.08;;;;;;;;;;5053163;28;20037;-55
2020/12/10 00:18:19;;;;;;;4.40;2.08;;;;;;;;;;5052811;28;20487;-54
2020/12/10 00:20:45;;;;;;;7.57;4.15;;;;;;;;;;5052764;28;20114;-57
2020/12/10 00:23:11;;;;;;;14.40;6.78;;;;;;;;;;5052947;28;20100;-57
2020/12/10 00:25:38;;;;;;;5.03;3.33;;;;;;;;;;5052818;28;20021;-57
2020/12/10 00:28:04;;;;;;;4.95;3.30;;;;;;;;;;5052802;28;20496;-56
2020/12/10 00:30:30;;;;;;;6.30;3.42;;;;;;;;;;5053050;28;20043;-56
2020/12/10 00:32:56;;;;;;;10.60;6.13;;;;;;;;;;5053035;28;20461;-57
2020/12/10 00:35:22;;;;;;;10.63;5.85;;;;;;;;;;5052728;28;20116;-58
2020/12/10 00:37:48;;;;;;;4.22;2.75;;;;;;;;;;5052897;28;20028;-56
2020/12/10 00:40:14;;;;;;;4.20;2.53;;;;;;;;;;5052669;28;20484;-57
2020/12/10 00:42:40;;;;;;;3.38;2.50;;;;;;;;;;5052556;28;20060;-55
2020/12/10 00:45:07;;;;;;;7.25;3.15;;;;;;;;;;5052630;28;20033;-57
2020/12/10 00:47:33;;;;;;;4.47;2.78;;;;;;;;;;5052727;28;20025;-56
2020/12/10 00:49:59;;;;;;;4.53;3.00;;;;;;;;;;5052578;28;20029;-55
2020/12/10 00:52:26;;;;;;;4.60;2.85;;;;;;;;;;5052531;28;20021;-57
2020/12/10 00:54:52;;;;;;;5.15;3.13;;;;;;;;;;5052802;28;20025;-58
2020/12/10 00:57:18;;;;;;;6.18;3.03;;;;;;;;;;5052847;28;20413;-54
2020/12/10 00:59:44;;;;;;;4.80;2.72;;;;;;;;;;5052647;28;20018;-57
2020/12/10 01:02:10;;;;;;;4.00;2.47;;;;;;;;;;5052476;28;20029;-56
2020/12/10 01:04:37;;;;;;;6.15;4.00;;;;;;;;;;5055496;28;20025;-56
2020/12/10 01:07:03;;;;;;;5.85;2.58;;;;;;;;;;5056080;28;20473;-57
2020/12/10 01:09:29;;;;;;;5.50;2.58;;;;;;;;;;5056384;28;20028;-56
2020/12/10 01:11:55;;;;;;;4.80;2.90;;;;;;;;;;5056293;28;20032;-57
2020/12/10 01:14:22;;;;;;;5.18;3.45;;;;;;;;;;5055823;28;20106;-56
2020/12/10 01:16:48;;;;;;;5.55;3.95;;;;;;;;;;5055969;28;20036;-58
2020/12/10 01:19:14;;;;;;;5.38;3.85;;;;;;;;;;5055870;28;20045;-57
2020/12/10 01:21:41;;;;;;;6.57;4.45;;;;;;;;;;5055631;28;20053;-57
2020/12/10 01:24:07;;;;;;;7.40;4.75;;;;;;;;;;5055834;28;20025;-56
2020/12/10 01:26:33;;;;;;;6.53;4.03;;;;;;;;;;5055693;28;20104;-55
2020/12/10 01:29:02;;;;;;;9.65;5.15;;;;;;;;;;5055965;28;20021;-56
2020/12/10 01:31:29;;;;;;;8.88;5.82;;;;;;;;;;5056012;28;20508;-57
2020/12/10 01:33:55;;;;;;;11.82;5.60;;;;;;;;;;5037787;28;20021;-57
2020/12/10 01:36:25;;;;;;;8.07;5.45;;;;;;;;;;5055817;28;20118;-57
2020/12/10 01:38:52;;;;;;;8.80;6.13;;;;;;;;;;5055550;28;20021;-57
2020/12/10 01:41:19;;;;;;;10.52;6.57;;;;;;;;;;5055781;28;20481;-56
2020/12/10 01:43:45;;;;;;;10.38;6.60;;;;;;;;;;5055345;28;20021;-56
2020/12/10 01:46:11;;;;;;;10.35;6.43;;;;;;;;;;5037586;28;20032;-55
2020/12/10 01:48:38;;;;;;;12.07;7.72;;;;;;;;;;5055276;28;20029;-56
2020/12/10 01:51:04;;;;;;;11.50;7.32;;;;;;;;;;5055298;28;20025;-57
2020/12/10 01:53:31;;;;;;;12.88;7.72;;;;;;;;;;5055559;28;20377;-56
2020/12/10 01:55:57;;;;;;;11.57;8.00;;;;;;;;;;5055154;28;20033;-57
2020/12/10 01:58:24;;;;;;;10.95;7.18;;;;;;;;;;5055185;28;20036;-57
2020/12/10 02:00:51;;;;;;;10.75;6.88;;;;;;;;;;5055418;28;20104;-55
2020/12/10 02:03:18;;;;;;;9.38;6.50;;;;;;;;;;5055008;28;20021;-56
2020/12/10 02:05:45;;;;;;;10.75;6.35;;;;;;;;;;5055330;28;20104;-57
2020/12/10 02:08:11;;;;;;;11.20;6.70;;;;;;;;;;5054860;28;20493;-57
2020/12/10 02:10:38;;;;;;;10.65;6.70;;;;;;;;;;5037412;28;20111;-56
2020/12/10 02:13:04;;;;;;;9.40;6.25;;;;;;;;;;5055224;28;20021;-54
2020/12/10 02:15:33;;;;;;;11.05;5.45;;;;;;;;;;5053998;28;20075;-56
2020/12/10 02:18:00;;;;;;;7.80;5.32;;;;;;;;;;5055670;28;20363;-53
2020/12/10 02:20:26;;;;;;;9.05;5.78;;;;;;;;;;5054676;28;20049;-56
2020/12/10 02:22:58;;;;;;;9.95;5.80;;;;;;;;;;5054926;28;20044;-57
2020/12/10 02:25:25;;;;;;;9.32;5.63;;;;;;;;;;5054884;28;20029;-56
2020/12/10 02:27:51;;;;;;;9.13;5.80;;;;;;;;;;5054942;28;20351;-57
2020/12/10 02:30:17;;;;;;;8.43;5.05;;;;;;;;;;5054849;28;20130;-57
2020/12/10 02:32:43;;;;;;;6.18;3.38;;;;;;;;;;5054782;28;20068;-54
2020/12/10 02:35:09;;;;;;;6.03;4.13;;;;;;;;;;5054269;28;20223;-53
2020/12/10 02:37:35;;;;;;;9.68;4.50;;;;;;;;;;5054376;28;20162;-54
2020/12/10 02:40:01;;;;;;;7.03;4.55;;;;;;;;;;5054314;28;20025;-56
2020/12/10 02:42:28;;;;;;;8.75;5.32;;;;;;;;;;5054332;28;20031;-54
2020/12/10 02:44:54;;;;;;;6.68;4.97;;;;;;;;;;5054146;28;20025;-56
2020/12/10 02:47:20;;;;;;;7.93;4.85;;;;;;;;;;5054491;28;20116;-56
2020/12/10 02:49:46;;;;;;;8.70;4.95;;;;;;;;;;5054449;28;20055;-55
2020/12/10 02:52:12;;;;;;;7.25;4.97;;;;;;;;;;5054203;28;20386;-56
2020/12/10 02:54:38;;;;;;;7.18;4.78;;;;;;;;;;5053903;28;20025;-55
2020/12/10 02:57:04;;;;;;;9.82;4.35;;;;;;;;;;5054110;28;20032;-57
2020/12/10 02:59:30;;;;;;;10.27;5.40;;;;;;;;;;5054160;28;20067;-56
2020/12/10 03:01:56;;;;;;;8.95;5.30;;;;;;;;;;5053893;28;20112;-55
2020/12/10 03:04:23;;;;;;;8.02;5.60;;;;;;;;;;5054202;28;20024;-56
2020/12/10 03:06:49;;;;;;;8.27;6.03;;;;;;;;;;5053937;28;20375;-57
2020/12/10 03:09:15;;;;;;;7.88;5.28;;;;;;;;;;5053936;28;20024;-55
2020/12/10 03:11:41;;;;;;;6.57;4.80;;;;;;;;;;5053839;28;20491;-57
2020/12/10 03:14:07;;;;;;;7.38;5.40;;;;;;;;;;5053960;28;20044;-56
2020/12/10 03:16:33;;;;;;;9.40;5.20;;;;;;;;;;5053741;28;20033;-57
2020/12/10 03:18:59;;;;;;;6.43;4.95;;;;;;;;;;5053542;28;20059;-55
2020/12/10 03:21:25;;;;;;;8.73;5.53;;;;;;;;;;5053483;28;20049;-56
2020/12/10 03:23:52;;;;;;;8.57;6.05;;;;;;;;;;5053565;28;20025;-56
2020/12/10 03:26:18;;;;;;;8.05;5.55;;;;;;;;;;5053568;28;20607;-57
2020/12/10 03:28:44;;;;;;;11.52;6.55;;;;;;;;;;5053510;28;20107;-56
2020/12/10 03:31:10;;;;;;;13.57;8.00;;;;;;;;;;5053457;28;20029;-56
2020/12/10 03:33:36;;;;;;;9.75;6.70;;;;;;;;;;5053700;28;20377;-57
2020/12/10 03:36:02;;;;;;;8.35;6.30;;;;;;;;;;5053543;28;20033;-57
2020/12/10 03:38:28;;;;;;;10.30;6.90;;;;;;;;;;5053660;28;20025;-55
2020/12/10 03:40:54;;;;;;;10.43;6.53;;;;;;;;;;5053542;28;20074;-56
2020/12/10 03:43:21;;;;;;;9.82;6.32;;;;;;;;;;5053617;28;20033;-57
2020/12/10 03:45:47;;;;;;;8.50;5.82;;;;;;;;;;5053468;28;20021;-56
2020/12/10 03:48:13;;;;;;;6.68;4.50;;;;;;;;;;5053312;28;20076;-56
2020/12/10 03:50:39;;;;;;;7.60;5.00;;;;;;;;;;5053144;28;20032;-56
2020/12/10 03:53:05;;;;;;;8.02;4.57;;;;;;;;;;5053077;28;20021;-56
2020/12/10 03:55:31;;;;;;;5.68;4.28;;;;;;;;;;5052923;28;20120;-54
2020/12/10 03:57:58;;;;;;;7.65;4.85;;;;;;;;;;5053541;28;20120;-56
2020/12/10 04:00:25;;;;;;;4.32;3.35;;;;;;;;;;5053010;28;20381;-57
2020/12/10 04:02:51;;;;;;;5.20;3.72;;;;;;;;;;5053418;28;20416;-56
2020/12/10 04:05:17;;;;;;;4.93;3.72;;;;;;;;;;5053276;28;20029;-57
2020/12/10 04:07:43;;;;;;;4.82;3.42;;;;;;;;;;5053291;28;20112;-57
2020/12/10 04:10:09;;;;;;;6.03;3.50;;;;;;;;;;5052892;28;20056;-56
2020/12/10 04:12:35;;;;;;;3.65;3.00;;;;;;;;;;5053246;28;20028;-56
2020/12/10 04:15:01;;;;;;;4.05;3.20;;;;;;;;;;5053204;28;20466;-57
2020/12/10 04:17:29;;;;;;;5.82;3.05;;;;;;;;;;5053012;28;20032;-57
2020/12/10 04:19:55;;;;;;;4.55;3.00;;;;;;;;;;5052645;28;20397;-57
2020/12/10 04:22:21;;;;;;;4.85;3.17;;;;;;;;;;5052834;28;20037;-57
2020/12/10 04:24:47;;;;;;;4.57;3.47;;;;;;;;;;5052835;28;20067;-55
2020/12/10 04:27:13;;;;;;;5.38;4.15;;;;;;;;;;5053230;28;20424;-57
2020/12/10 04:29:39;;;;;;;4.38;3.38;;;;;;;;;;5052775;28;20032;-55
2020/12/10 04:32:06;;;;;;;5.20;4.20;;;;;;;;;;5052790;28;20462;-56
2020/12/10 04:34:32;;;;;;;5.35;3.22;;;;;;;;;;5053028;28;20079;-56
2020/12/10 04:36:58;;;;;;;6.70;3.53;;;;;;;;;;5053002;28;20464;-56
2020/12/10 04:39:24;;;;;;;4.68;3.45;;;;;;;;;;5055300;28;20028;-56
2020/12/10 04:41:50;;;;;;;10.85;4.03;;;;;;;;;;5056687;28;20521;-56
2020/12/10 04:44:16;;;;;;;8.48;4.07;;;;;;;;;;5056662;28;20022;-57
2020/12/10 04:46:45;;;;;;;6.15;4.22;;;;;;;;;;5056636;28;20029;-57
2020/12/10 04:49:12;;;;;;;5.40;3.88;;;;;;;;;;5056509;28;20056;-56
2020/12/10 04:51:40;;;;;;;10.95;5.20;;;;;;;;;;5056587;28;20033;-57
2020/12/10 04:54:06;;;;;;;5.63;4.32;;;;;;;;;;5038478;28;20025;-54
2020/12/10 04:56:32;;;;;;;4.78;3.05;;;;;;;;;;5056456;28;20032;-55
2020/12/10 04:58:58;;;;;;;6.75;3.80;;;;;;;;;;5055872;28;20052;-56
2020/12/10 05:01:25;;;;;;;9.55;3.83;;;;;;;;;;5056265;28;20025;-53
2020/12/10 05:03:51;;;;;;;6.40;4.13;;;;;;;;;;5038553;28;20103;-54
2020/12/10 05:06:18;;;;;;;6.65;4.00;;;;;;;;;;5056406;28;20031;-56
2020/12/10 05:08:45;;;;;;;6.00;3.95;;;;;;;;;;5056400;28;20040;-56
2020/12/10 05:11:12;;;;;;;7.68;4.05;;;;;;;;;;5056010;28;20061;-57
2020/12/10 05:13:38;;;;;;;6.47;3.20;;;;;;;;;;5055989;28;20123;-57
2020/12/10 05:16:05;;;;;;;6.43;3.45;;;;;;;;;;5055837;28;20040;-54
2020/12/10 05:18:31;;;;;;;7.20;4.13;;;;;;;;;;5056267;28;20116;-57
2020/12/10 05:20:58;;;;;;;3.88;3.20;;;;;;;;;;5055827;28;20055;-57
2020/12/10 05:23:37;;;;;;;5.47;2.92;;;;;;;;;;5055750;28;20107;-56
2020/12/10 05:26:04;;;;;;;5.82;2.85;;;;;;;;;;5056025;28;20116;-57
2020/12/10 05:28:43;;;;;;;5.15;3.50;;;;;;;;;;5055779;28;20029;-56
2020/12/10 05:31:17;;;;;;;5.00;3.45;;;;;;;;;;5055725;28;20025;-55
2020/12/10 05:33:59;;;;;;;3.65;2.30;;;;;;;;;;5055944;28;20033;-55
2020/12/10 05:36:26;;;;;;;3.80;2.58;;;;;;;;;;5055718;28;20033;-55
2020/12/10 05:38:55;;;;;;;8.05;3.00;;;;;;;;;;5055990;28;20417;-56
2020/12/10 05:41:23;;;;;;;5.53;2.88;;;;;;;;;;5055402;28;20043;-56
2020/12/10 05:43:49;;;;;;;7.20;2.80;;;;;;;;;;5055481;28;20544;-56
2020/12/10 05:46:17;;;;;;;12.23;4.50;;;;;;;;;;5055429;28;20025;-56
2020/12/10 05:48:47;;;;;;;6.45;4.20;;;;;;;;;;5055390;28;20029;-56
2020/12/10 05:51:17;;;;;;;5.40;3.15;;;;;;;;;;5055583;28;20021;-55
2020/12/10 05:53:43;;;;;;;5.97;3.35;;;;;;;;;;5055545;28;20436;-54
2020/12/10 05:56:13;;;;;;;5.60;3.38;;;;;;;;;;5055198;28;20083;-56
2020/12/10 05:58:49;;;;;;;8.07;4.07;;;;;;;;;;5055551;28;20017;-55
2020/12/10 06:01:26;;;;;;;8.63;4.90;;;;;;;;;;5055304;28;20029;-56
2020/12/10 06:03:53;;;;;;;9.80;4.50;;;;;;;;;;5055144;28;20021;-57
2020/12/10 06:06:20;;;;;;;8.00;4.22;;;;;;;;;;5054952;28;20477;-57
2020/12/10 06:08:48;;;;;;;10.45;4.00;;;;;;;;;;5037218;28;20021;-57
2020/12/10 06:11:18;;;;;;;5.55;3.58;;;;;;;;;;5054878;28;20116;-56
2020/12/10 06:13:44;;;;;;;5.93;3.08;;;;;;;;;;5054895;28;20063;-56
2020/12/10 06:16:17;;;;;;;4.25;2.78;;;;;;;;;;5055094;28;20032;-56
2020/12/10 06:19:03;;;;;;;5.07;2.42;;;;;;;;;;5054758;28;20029;-56
2020/12/10 06:21:40;;;;;;;8.75;3.72;;;;;;;;;;5054524;28;20045;-57
2020/12/10 06:24:25;;;;;;;8.63;4.55;;;;;;;;;;5054724;28;20032;-58
2020/12/10 06:26:51;;;;;;;11.50;6.70;;;;;;;;;;5054553;28;20052;-58
2020/12/10 06:29:19;;;;;;;8.52;6.05;;;;;;;;;;5054978;28;20025;-55
2020/12/10 06:32:03;;;;;;;9.80;5.03;;;;;;;;;;5054482;28;20039;-57
2020/12/10 06:34:33;;;;;;;9.52;5.03;;;;;;;;;;5054728;28;20025;-53
2020/12/10 06:37:19;;;;;;;10.70;5.38;;;;;;;;;;5054704;28;20338;-57
2020/12/10 06:39:46;;;;;;;6.60;4.57;;;;;;;;;;5054737;28;20021;-57
2020/12/10 06:42:12;;;;;;;15.50;5.75;;;;;;;;;;5054504;28;20098;-57
2020/12/10 06:44:38;;;;;;;16.00;7.32;;;;;;;;;;5054608;28;20392;-56
2020/12/10 06:47:05;;;;;;;9.82;5.63;;;;;;;;;;5054031;28;20470;-57
2020/12/10 06:49:32;;;;;;;9.60;4.80;;;;;;;;;;5054061;28;20028;-57
2020/12/10 06:52:18;;;;;;;7.65;3.00;;;;;;;;;;5053604;28;20036;-57
2020/12/10 06:55:04;;;;;;;6.07;2.42;;;;;;;;;;5053965;28;20512;-54
2020/12/10 06:57:50;;;;;;;3.75;2.03;;;;;;;;;;5053912;28;20029;-53
2020/12/10 07:00:35;;;;;;;4.68;2.35;;;;;;;;;;5054202;28;20119;-55
2020/12/10 07:03:08;;;;;;;8.18;4.25;;;;;;;;;;5053509;28;20058;-55
2020/12/10 07:05:34;;;;;;;14.95;7.53;;;;;;;;;;5036123;28;20029;-55
2020/12/10 07:08:07;;;;;;;12.07;4.55;;;;;;;;;;5054019;28;20029;-53
2020/12/10 07:10:40;;;;;;;11.65;5.30;;;;;;;;;;5054015;28;20037;-51
2020/12/10 07:13:06;;;;;;;20.55;4.38;;;;;;;;;;5053575;28;20116;-54
2020/12/10 07:15:33;;;;;;;6.82;3.90;;;;;;;;;;5053601;28;20124;-54
2020/12/10 07:18:02;;;;;;;5.72;2.97;;;;;;;;;;5051280;28;20474;-54
2020/12/10 07:20:28;;;;;;;5.35;2.05;;;;;;;;;;5052238;28;20057;-54
2020/12/10 07:22:55;;;;;;;5.60;2.55;;;;;;;;;;5053390;28;20025;-53
2020/12/10 07:25:21;;;;;;;3.60;2.30;;;;;;;;;;5052225;28;20025;-55
2020/12/10 07:27:47;;;;;;;4.30;2.30;;;;;;;;;;5047431;28;20033;-53
2020/12/10 07:30:14;;;;;;;4.38;2.08;;;;;;;;;;5053876;28;20025;-54
2020/12/10 07:32:40;;;;;;;3.35;2.10;;;;;;;;;;5053295;28;20040;-56
2020/12/10 07:35:07;;;;;;;8.57;4.68;;;;;;;;;;5053639;28;20033;-51
2020/12/10 07:37:34;;;;;;;10.30;5.13;;;;;;;;;;5050022;28;20025;-54
2020/12/10 07:40:17;;;;;;;17.13;8.43;;;;;;;;;;5032465;28;20090;-49
2020/12/10 07:42:43;;;;;;;14.52;7.78;;;;;;;;;;5053283;28;20062;-56
2020/12/10 07:45:17;;;;;;;16.88;6.68;;;;;;;;;;5053552;28;20024;-54
2020/12/10 07:47:53;;;;;;;11.85;5.45;;;;;;;;;;5053204;28;20032;-56
2020/12/10 07:50:23;;;;;;;11.50;4.38;;;;;;;;;;5053540;28;20048;-54
2020/12/10 07:52:51;;;;;;;6.82;3.33;;;;;;;;;;5053161;28;20485;-56
2020/12/10 07:55:20;;;;;;;4.72;3.03;;;;;;;;;;5035217;28;20044;-56
2020/12/10 07:58:07;;;;;;;6.38;3.67;;;;;;;;;;5053068;28;20025;-51
2020/12/10 08:00:33;;;;;;;10.27;4.85;;;;;;;;;;5039788;28;20041;-57
2020/12/10 08:03:18;;;;;;;12.52;5.95;;;;;;;;;;5053300;28;20064;-52
2020/12/10 08:05:58;;;;;;;11.52;4.90;;;;;;;;;;5053030;28;20159;-53
2020/12/10 08:08:39;;;;;;;13.45;5.75;;;;;;;;;;5052790;28;20032;-57
2020/12/10 08:11:06;;;;;;;;;;;;;;;;;;5049066;28;20397;-58
2020/12/10 08:13:32;;;;;;;15.05;7.20;;;;;;;;;;5052728;28;19909;-57
2020/12/10 08:16:06;;;;;;;10.88;5.65;;;;;;;;;;5050641;28;20109;-58
2020/12/10 08:18:33;;;;;;;10.93;5.95;;;;;;;;;;5035477;28;20063;-57
2020/12/10 08:21:04;;;;;;;13.80;6.47;;;;;;;;;;5048634;28;20167;-57
2020/12/10 08:23:42;;;;;;;10.33;7.07;;;;;;;;;;5053391;28;20112;-56
2020/12/10 08:26:09;;;;;;;12.68;7.40;;;;;;;;;;5037203;28;20043;-57
2020/12/10 08:28:38;;;;;;;14.13;7.88;;;;;;;;;;5053570;28;20516;-59
2020/12/10 08:31:06;;;;;;;12.57;7.55;;;;;;;;;;5036993;28;20035;-59
2020/12/10 08:33:33;;;;;;;12.40;6.45;;;;;;;;;;5054889;28;20025;-57
2020/12/10 08:35:59;;;;;;;11.88;7.43;;;;;;;;;;5055356;28;20436;-58
2020/12/10 08:38:27;;;;;;;20.63;12.68;;;;;;;;;;5054924;28;20429;-57
2020/12/10 08:40:57;;;;;;;27.85;12.48;;;;;;;;;;5051145;28;20067;-56
2020/12/10 08:43:23;;;;;;;19.05;7.32;;;;;;;;;;5054783;28;20135;-58
2020/12/10 08:45:49;;;;;;;14.85;7.68;;;;;;;;;;5054805;28;20021;-52
2020/12/10 08:48:17;;;;;;;9.45;5.45;;;;;;;;;;5055093;28;20052;-57
2020/12/10 08:50:53;;;;;;;7.72;5.35;;;;;;;;;;5054724;28;20401;-59
2020/12/10 08:53:20;;;;;;;5.85;2.70;;;;;;;;;;5054555;28;20478;-60
2020/12/10 08:55:49;;;;;;;5.28;2.90;;;;;;;;;;5054466;28;20386;-59
2020/12/10 08:58:18;;;;;;;6.15;3.20;;;;;;;;;;5054672;28;20017;-59
2020/12/10 09:00:45;;;;;;;4.60;2.90;;;;;;;;;;5054404;28;20071;-58
2020/12/10 09:03:11;;;;;;;5.20;2.33;;;;;;;;;;5054227;28;20131;-60
2020/12/10 09:05:37;;;;;;;31.70;14.70;;;;;;;;;;5054535;28;20068;-58
2020/12/10 09:08:04;;;;;;;16.17;8.15;;;;;;;;;;5054622;28;20040;-59
2020/12/10 09:10:31;;;;;;;39.95;22.42;;;;;;;;;;5036325;28;20032;-59
2020/12/10 09:12:58;;;;;;;11.93;5.93;;;;;;;;;;5054263;28;20036;-58
2020/12/10 09:15:24;;;;;;;2.88;2.00;;;;;;;;;;5053305;28;20489;-58
2020/12/10 09:17:51;;;;;;;2.70;1.58;;;;;;;;;;5054719;28;20029;-58
2020/12/10 09:20:18;;;;;;;2.42;1.55;;;;;;;;;;5036148;28;20682;-59
2020/12/10 09:22:45;;;;;;;3.85;1.40;;;;;;;;;;5054109;28;20025;-59
2020/12/10 09:25:11;;;;;;;2.20;1.40;;;;;;;;;;5053760;28;20136;-60
2020/12/10 09:27:38;;;;;;;2.03;1.50;;;;;;;;;;5054312;28;20055;-59
2020/12/10 09:30:05;;;;;;;5.68;2.30;;;;;;;;;;5053944;28;20037;-59
2020/12/10 09:32:34;;;;;;;2.67;1.83;;;;;;;;;;5054217;28;20409;-59
2020/12/10 09:35:05;;;;;;;4.05;1.60;;;;;;;;;;5053940;28;20029;-59
2020/12/10 09:37:48;;;;;;;5.78;1.50;;;;;;;;;;5053516;28;20057;-59
2020/12/10 09:40:15;;;;;;;3.05;1.30;;;;;;;;;;5053732;28;20021;-59
2020/12/10 09:42:42;;;;;;;3.42;1.45;;;;;;;;;;5053360;28;20097;-58
2020/12/10 09:45:11;;;;;;;2.78;1.42;;;;;;;;;;5053447;28;20021;-56
2020/12/10 09:47:38;;;;;;;4.28;2.60;;;;;;;;;;5053874;28;20029;-56
2020/12/10 09:50:07;;;;;;;5.95;1.85;;;;;;;;;;5053463;28;20470;-57
2020/12/10 09:52:38;;;;;;;5.60;2.10;;;;;;;;;;5053530;28;20025;-58
2020/12/10 09:57:36;;;;;;;3.53;2.17;;;;;;;;;;5053658;28;20427;-58
2020/12/10 10:00:27;;;;;;;2.13;1.20;;;;;;;;;;5035791;28;20048;-58
2020/12/10 10:02:54;;;;;;;5.45;1.40;;;;;;;;;;5053618;28;20025;-58
2020/12/10 10:05:20;;;;;;;6.93;1.75;;;;;;;;;;5053307;28;20025;-58
2020/12/10 10:07:47;;;;;;;1.98;1.38;;;;;;;;;;5053594;28;20064;-58
2020/12/10 10:10:14;;;;;;;1.75;1.10;;;;;;;;;;5053091;28;20401;-58
2020/12/10 10:12:42;;;;;;;2.65;1.92;;;;;;;;;;5053847;28;20021;-57
2020/12/10 10:15:08;;;;;;;2.97;1.58;;;;;;;;;;5053098;28;20044;-58
2020/12/10 10:17:35;;;;;;;1.50;1.00;;;;;;;;;;5053298;28;20029;-58
2020/12/10 10:20:01;;;;;;;2.65;1.40;;;;;;;;;;5035318;28;20120;-58
2020/12/10 10:22:31;;;;;;;2.75;1.00;;;;;;;;;;5052972;28;20066;-57
2020/12/10 10:24:57;;;;;;;1.95;1.20;;;;;;;;;;5036132;28;20029;-57
2020/12/10 10:27:23;;;;;;;2.08;1.50;;;;;;;;;;5053351;28;20381;-58
2020/12/10 10:29:49;;;;;;;5.80;1.10;;;;;;;;;;5053200;28;20496;-58
2020/12/10 10:32:16;;;;;;;1.85;1.00;;;;;;;;;;5035134;28;20029;-57
2020/12/10 10:34:43;;;;;;;3.67;1.00;;;;;;;;;;5052651;28;20020;-57
2020/12/10 10:37:09;;;;;;;2.17;1.20;;;;;;;;;;5051826;28;20033;-58
2020/12/10 10:39:35;;;;;;;2.15;1.02;;;;;;;;;;5052877;28;20031;-58
2020/12/10 10:42:01;;;;;;;2.05;1.20;;;;;;;;;;5052737;28;20029;-58
2020/12/10 10:44:27;;;;;;;2.05;1.42;;;;;;;;;;5052773;28;20443;-58
2020/12/10 10:46:54;;;;;;;6.85;1.77;;;;;;;;;;5052589;28;20060;-58
2020/12/10 10:49:20;;;;;;;2.38;0.90;;;;;;;;;;5052479;28;20028;-59
2020/12/10 10:51:51;;;;;;;1.83;0.93;;;;;;;;;;5052131;28;20033;-59
2020/12/10 10:54:17;;;;;;;1.50;1.05;;;;;;;;;;5052111;28;20037;-58
2020/12/10 10:56:43;;;;;;;3.90;1.30;;;;;;;;;;5052555;28;20048;-58
2020/12/10 10:59:09;;;;;;;1.90;1.00;;;;;;;;;;5052704;28;20056;-58
2020/12/10 11:01:37;;;;;;;1.58;1.10;;;;;;;;;;5052088;28;20506;-57
2020/12/10 11:04:04;;;;;;;3.47;1.30;;;;;;;;;;5045985;28;20028;-57
2020/12/10 11:06:30;;;;;;;6.80;1.42;;;;;;;;;;5032121;28;20228;-58
2020/12/10 11:08:56;;;;;;;6.47;1.80;;;;;;;;;;5032807;28;20167;-58
2020/12/10 11:11:23;;;;;;;11.98;2.80;;;;;;;;;;5032172;28;20033;-58
2020/12/10 11:13:50;;;;;;;6.40;2.78;;;;;;;;;;5032337;28;20095;-58
2020/12/10 11:16:21;;;;;;;12.30;3.67;;;;;;;;;;5031538;28;20041;-56
2020/12/10 11:18:47;;;;;;;3.78;2.50;;;;;;;;;;5031422;28;20037;-57
2020/12/10 11:21:14;;;;;;;8.05;2.13;;;;;;;;;;5047437;28;20107;-54
2020/12/10 11:23:42;;;;;;;4.40;2.30;;;;;;;;;;5052039;28;20021;-58
2020/12/10 11:26:09;;;;;;;9.90;2.53;;;;;;;;;;5051599;28;20104;-59
2020/12/10 11:28:59;;;;;;;3.75;1.25;;;;;;;;;;5051930;28;20497;-57
2020/12/10 11:31:35;;;;;;;10.75;2.35;;;;;;;;;;5051238;28;20120;-58
2020/12/10 11:34:22;;;;;;;6.15;2.42;;;;;;;;;;5051552;28;20025;-57
2020/12/10 11:36:49;;;;;;;5.00;2.53;;;;;;;;;;5051425;28;20091;-58
2020/12/10 11:39:17;;;;;;;5.25;2.67;;;;;;;;;;5051728;28;20541;-58
2020/12/10 11:41:44;;;;;;;8.70;1.77;;;;;;;;;;5051337;28;20367;-57
2020/12/10 11:44:10;;;;;;;6.47;3.42;;;;;;;;;;5051983;28;20111;-57
2020/12/10 11:46:36;;;;;;;10.68;5.13;;;;;;;;;;5051476;28;20529;-58
2020/12/10 11:49:05;;;;;;;3.28;2.28;;;;;;;;;;5051470;28;20029;-57
2020/12/10 11:51:33;;;;;;;6.57;2.00;;;;;;;;;;5051338;28;20107;-58
2020/12/10 11:54:02;;;;;;;4.97;1.85;;;;;;;;;;5051587;28;20040;-58
2020/12/10 11:56:28;;;;;;;9.68;4.82;;;;;;;;;;5051448;28;20464;-58
2020/12/10 11:58:54;;;;;;;12.48;6.70;;;;;;;;;;5051398;28;20052;-57
2020/12/10 12:01:21;;;;;;;13.65;3.22;;;;;;;;;;5051435;28;20059;-57
2020/12/10 12:03:48;;;;;;;3.53;1.80;;;;;;;;;;5032741;28;20351;-57
2020/12/10 12:06:15;;;;;;;5.03;1.85;;;;;;;;;;5051124;28;20025;-58
2020/12/10 12:08:41;;;;;;;2.15;1.30;;;;;;;;;;5051345;28;20036;-58
2020/12/10 12:11:08;;;;;;;6.40;2.00;;;;;;;;;;5050982;28;20367;-57
2020/12/10 12:13:34;;;;;;;10.85;4.63;;;;;;;;;;5051728;28;20432;-58
2020/12/10 12:16:00;;;;;;;5.38;2.42;;;;;;;;;;5049818;28;20044;-57
2020/12/10 12:18:28;;;;;;;6.07;2.65;;;;;;;;;;5051384;28;20044;-58
2020/12/10 12:20:59;;;;;;;4.07;1.90;;;;;;;;;;5033390;28;20560;-57
2020/12/10 12:23:25;;;;;;;4.15;1.90;;;;;;;;;;5050606;28;20029;-57
2020/12/10 12:25:51;;;;;;;5.10;1.88;;;;;;;;;;5051000;28;20086;-58
2020/12/10 12:28:18;;;;;;;4.10;2.42;;;;;;;;;;5051061;28;20021;-56
2020/12/10 12:30:44;;;;;;;8.05;2.83;;;;;;;;;;5033457;28;20396;-58
2020/12/10 12:33:19;;;;;;;11.50;4.95;;;;;;;;;;5048347;28;20033;-67
2020/12/10 12:35:49;;;;;;;6.60;2.33;;;;;;;;;;5050970;28;20037;-61
2020/12/10 12:38:17;;;;;;;4.85;2.20;;;;;;;;;;5051026;28;20067;-59
2020/12/10 12:40:46;;;;;;;4.85;2.47;;;;;;;;;;5030166;28;20490;-57
2020/12/10 12:43:12;;;;;;;5.22;2.33;;;;;;;;;;5031418;28;20363;-58
2020/12/10 12:45:38;;;;;;;6.07;2.75;;;;;;;;;;5031039;28;20437;-58
2020/12/10 12:48:05;;;;;;;4.35;1.48;;;;;;;;;;5031002;28;20028;-58
2020/12/10 12:50:32;;;;;;;4.78;1.85;;;;;;;;;;5030944;28;20036;-57
2020/12/10 12:53:19;;;;;;;3.70;1.80;;;;;;;;;;5031071;28;20033;-58
2020/12/10 12:55:45;;;;;;;5.20;2.10;;;;;;;;;;5030502;28;20513;-59
2020/12/10 12:58:11;;;;;;;2.70;2.10;;;;;;;;;;5029807;28;20064;-58
2020/12/10 13:00:38;;;;;;;6.28;2.72;;;;;;;;;;5033589;28;20390;-59
2020/12/10 13:03:04;;;;;;;3.25;1.30;;;;;;;;;;5034990;28;20022;-59
2020/12/10 13:05:30;;;;;;;4.72;1.67;;;;;;;;;;5034921;28;20458;-59
2020/12/10 13:07:57;;;;;;;4.90;1.77;;;;;;;;;;5034798;28;20021;-59
2020/12/10 13:10:44;;;;;;;4.30;1.45;;;;;;;;;;5034354;28;20029;-60
2020/12/10 13:13:11;;;;;;;6.07;1.65;;;;;;;;;;5034672;28;20029;-59
2020/12/10 13:15:37;;;;;;;3.17;1.20;;;;;;;;;;5034362;28;20042;-59
2020/12/10 13:18:03;;;;;;;3.58;1.70;;;;;;;;;;5034104;28;20021;-59
2020/12/10 13:20:29;;;;;;;7.63;2.05;;;;;;;;;;5043673;28;20139;-59
2020/12/10 13:22:56;;;;;;;4.40;1.70;;;;;;;;;;5054373;28;20032;-59
2020/12/10 13:25:42;;;;;;;5.63;1.80;;;;;;;;;;5054379;28;20027;-59
2020/12/10 13:28:08;;;;;;;7.10;1.42;;;;;;;;;;5054104;28;20108;-59
2020/12/10 13:30:34;;;;;;;5.57;1.35;;;;;;;;;;5053785;28;20025;-59
2020/12/10 13:33:00;;;;;;;4.93;1.90;;;;;;;;;;5053581;28;20031;-57
2020/12/10 13:35:26;;;;;;;10.05;2.40;;;;;;;;;;5053744;28;20052;-59
2020/12/10 13:37:52;;;;;;;11.32;3.08;;;;;;;;;;5052332;28;20494;-58
2020/12/10 13:40:20;;;;;;;6.50;2.10;;;;;;;;;;5042522;28;20036;-58
2020/12/10 13:42:46;;;;;;;7.50;3.45;;;;;;;;;;5043871;28;20021;-58
2020/12/10 13:45:13;;;;;;;16.60;4.03;;;;;;;;;;5044353;28;20040;-58
2020/12/10 13:47:39;;;;;;;12.90;3.05;;;;;;;;;;5042612;28;20021;-58
2020/12/10 13:50:09;;;;;;;6.30;2.40;;;;;;;;;;5043660;28;20024;-58
2020/12/10 13:52:36;;;;;;;4.40;2.20;;;;;;;;;;5035968;28;20033;-57
2020/12/10 13:55:07;;;;;;;5.85;1.80;;;;;;;;;;5053460;28;20086;-59
2020/12/10 13:57:33;;;;;;;2.28;1.45;;;;;;;;;;5052923;28;20029;-59
2020/12/10 14:00:02;;;;;;;2.92;1.45;;;;;;;;;;5050482;28;20545;-59
2020/12/10 14:02:29;;;;;;;4.25;2.20;;;;;;;;;;5050116;28;20029;-59
2020/12/10 14:04:55;;;;;;;3.60;2.28;;;;;;;;;;5053698;28;20090;-58
2020/12/10 14:07:24;;;;;;;4.03;1.60;;;;;;;;;;5053335;28;20029;-58
2020/12/10 14:09:50;;;;;;;4.50;3.00;;;;;;;;;;5032984;28;20110;-57
2020/12/10 14:12:17;;;;;;;1.98;1.17;;;;;;;;;;5032313;28;20526;-58
2020/12/10 14:14:43;;;;;;;5.72;2.95;;;;;;;;;;5033211;28;20470;-58
2020/12/10 14:17:14;;;;;;;2.53;1.58;;;;;;;;;;5033314;28;20121;-58
2020/12/10 14:19:44;;;;;;;8.27;1.90;;;;;;;;;;5015673;28;20470;-58
2020/12/10 14:22:19;;;;;;;2.72;1.63;;;;;;;;;;5029551;28;20053;-58
2020/12/10 14:24:45;;;;;;;5.57;3.80;;;;;;;;;;5015742;28;20030;-58
2020/12/10 14:27:17;;;;;;;4.50;2.30;;;;;;;;;;5033144;28;20497;-58
2020/12/10 14:29:44;;;;;;;10.95;4.60;;;;;;;;;;5016201;28;20109;-58
2020/12/10 14:32:11;;;;;;;5.82;3.95;;;;;;;;;;5030578;28;20028;-58
2020/12/10 14:34:37;;;;;;;5.10;2.75;;;;;;;;;;5032441;28;20497;-59
2020/12/10 14:37:04;;;;;;;5.65;2.67;;;;;;;;;;5032355;28;20103;-56
2020/12/10 14:39:30;;;;;;;3.85;2.30;;;;;;;;;;5032798;28;20473;-58
2020/12/10 14:41:56;;;;;;;5.55;3.70;;;;;;;;;;5032566;28;20032;-58
2020/12/10 14:44:22;;;;;;;3.72;2.22;;;;;;;;;;5032768;28;20108;-59
2020/12/10 14:46:48;;;;;;;3.40;2.40;;;;;;;;;;5035145;28;20104;-57
2020/12/10 14:49:15;;;;;;;3.80;2.65;;;;;;;;;;5032987;28;20029;-58